Flight Track Log - Related Links

Times and Time Zones

All times are in EST time to prevent confusion due to time zone crossing. See the EJA904 flight status page for this flight to view local times or setup timezone preferences in your user account.

Time Position Orientation Groundspeed Altitude Reporting Facility
EST Latitude Longitude Course Direction KTS MPH feet Rate Location/Type
Sun 03:02:46 PM 37.4000 -121.9667 76° East 201 231 2,400  Level Northern Cal TRACON
Sun 03:03:46 PM 37.4333 -121.9500 22° Northeast 227 261 5,000 1,722 Climbing Northern Cal TRACON
Sun 03:06:15 PM 37.3450 -121.8153 129° Southeast 208 239 8,400 1,743 Climbing Oakland Center
Sun 03:07:16 PM 37.3175 -121.8811 242° Southwest 216 249 11,100 2,000 Climbing Oakland Center
Sun 03:08:00 PM 37.6654 -120.9019 76° East  Level Estimated
Sun 03:08:18 PM 37.3756 -121.9447 319° Northwest 281 323 12,500  Level Oakland Center
Sun 03:09:19 PM 37.4786 -121.9575 354° North 375 432 13,500 1,561 Climbing Oakland Center
Sun 03:10:21 PM 37.5878 -121.9694 355° North 393 452 15,700 1,984 Climbing Oakland Center
Sun 03:11:23 PM 37.7000 -121.9797 356° North 405 466 17,600 1,707 Climbing Oakland Center
Sun 03:12:24 PM 37.8100 -121.9408 16° North 423 487 19,200 1,805 Climbing Oakland Center
Sun 03:13:26 PM 37.8872 -121.7917 57° Northeast 430 495 21,300 1,854 Climbing Oakland Center
Sun 03:14:27 PM 37.9458 -121.6542 62° Northeast 439 505 23,000 1,707 Climbing Oakland Center
Sun 03:15:29 PM 38.0022 -121.5183 62° Northeast 440 506 24,800 1,610 Climbing Oakland Center
Sun 03:16:30 PM 38.0617 -121.3775 62° Northeast 448 516 26,300 1,415 Climbing Oakland Center
Sun 03:17:32 PM 38.1217 -121.2342 62° Northeast 458 527 27,700 1,258 Climbing Oakland Center
Sun 03:18:34 PM 38.1822 -121.0900 62° Northeast 465 535 28,900 1,122 Climbing Oakland Center
Sun 03:19:35 PM 38.2203 -120.9283 73° East 484 557 30,000 1,317 Climbing Oakland Center
Sun 03:20:37 PM 38.2475 -120.7289 80° East 482 555 31,600 1,805 Climbing Oakland Center
Sun 03:21:38 PM 38.2717 -120.5614 80° East 484 557 33,700 1,610 Climbing Oakland Center
Sun 03:22:40 PM 38.2942 -120.3964 80° East 478 550 34,900 1,463 Climbing Oakland Center
Sun 03:23:41 PM 38.3164 -120.2278 80° East 484 557 36,700 1,024 Climbing Oakland Center
Sun 03:24:43 PM 38.3408 -120.0575 80° East 490 564 37,000 780 Climbing Oakland Center
Sun 03:25:44 PM 38.3658 -119.8772 80° East 513 590 38,300 1,024 Climbing Oakland Center
Sun 03:26:46 PM 38.3886 -119.6983 81° East 514 592 39,100 829 Climbing Oakland Center
Sun 03:27:47 PM 38.4169 -119.4908 80° East 518 596 40,000 732 Climbing Oakland Center
Sun 03:28:49 PM 38.4400 -119.3075 81° East 525 604 40,600 488 Climbing Oakland Center
Sun 03:29:50 PM 38.4636 -119.1250 81° East 524 603 41,000 195 Climbing Oakland Center
Sun 03:30:52 PM 38.4869 -118.9394 81° East 530 610 41,000  Level Oakland Center
Sun 03:31:54 PM 38.5100 -118.7533 81° East 533 613 41,000  Level Oakland Center
Sun 03:32:55 PM 38.5372 -118.5289 81° East 536 617 41,000  Level Oakland Center
Sun 03:33:57 PM 38.5597 -118.3428 81° East 534 615 41,000  Level Oakland Center
Sun 03:34:58 PM 38.5814 -118.1567 81° East 533 613 41,000  Level Oakland Center
Sun 03:36:00 PM 38.6033 -117.9797 81° East 532 612 41,000  Level Oakland Center
Sun 03:37:01 PM 38.6244 -117.7919 82° East 532 612 41,000  Level Oakland Center
Sun 03:38:03 PM 38.6450 -117.6028 82° East 533 613 41,000  Level Salt Lake Center
Sun 03:39:04 PM 38.6656 -117.4153 82° East 531 611 41,000  Level Salt Lake Center
Sun 03:40:06 PM 38.6958 -117.1897 80° East 532 612 41,000  Level Salt Lake Center
Sun 03:41:08 PM 38.7286 -117.0042 77° East 532 612 41,000  Level Salt Lake Center
Sun 03:42:10 PM 38.7597 -116.8189 78° East 530 610 41,000  Level Salt Lake Center
Sun 03:43:11 PM 38.7911 -116.6331 78° East 532 612 41,000  Level Salt Lake Center
Sun 03:44:13 PM 38.8217 -116.4481 78° East 530 610 41,000  Level Salt Lake Center
Sun 03:45:15 PM 38.8517 -116.2611 78° East 532 612 41,000  Level Salt Lake Center
Sun 03:46:16 PM 38.8817 -116.0767 78° East 530 610 41,000  Level Salt Lake Center
Sun 03:47:18 PM 38.9111 -115.8917 78° East 530 610 41,000  Level Salt Lake Center
Sun 03:48:20 PM 38.9406 -115.7069 78° East 528 608 41,000  Level Salt Lake Center
Sun 03:49:22 PM 38.9753 -115.4850 79° East 528 608 41,000  Level Salt Lake Center
Sun 03:50:23 PM 39.0050 -115.3000 78° East 528 608 41,000  Level Salt Lake Center
Sun 03:51:25 PM 39.0333 -115.1139 79° East 529 609 41,000  Level Salt Lake Center
Sun 03:52:27 PM 39.0608 -114.9297 79° East 527 606 41,000  Level Salt Lake Center
Sun 03:53:28 PM 39.0878 -114.7475 79° East 522 601 41,000  Level Salt Lake Center
Sun 03:54:30 PM 39.1158 -114.5625 79° East 525 604 41,000  Level Salt Lake Center
Sun 03:55:32 PM 39.1425 -114.3794 79° East 522 601 41,000  Level Salt Lake Center
Sun 03:56:34 PM 39.1683 -114.1942 80° East 524 603 41,000  Level Salt Lake Center
Sun 03:57:35 PM 39.2008 -113.9731 79° East 524 603 41,000  Level Salt Lake Center
Sun 03:58:37 PM 39.2261 -113.7892 80° East 522 601 41,000  Level Salt Lake Center
Sun 03:59:40 PM 39.2517 -113.6044 80° East 522 601 41,000  Level Salt Lake Center
Sun 04:00:42 PM 39.2772 -113.4214 80° East 520 598 41,000  Level Salt Lake Center
Sun 04:01:43 PM 39.3025 -113.2372 80° East 520 598 41,000  Level Salt Lake Center
Sun 04:02:45 PM 39.3325 -113.0558 78° East 517 595 41,000  Level Salt Lake Center
Sun 04:03:47 PM 39.3633 -112.8731 78° East 520 598 41,000  Level Salt Lake Center
Sun 04:04:49 PM 39.3986 -112.6531 78° East 521 600 41,000  Level Salt Lake Center
Sun 04:05:50 PM 39.4256 -112.4936 78° East 519 597 41,000  Level Salt Lake Center
Sun 04:06:52 PM 39.4547 -112.3111 78° East 519 597 41,000  Level Salt Lake Center
Sun 04:07:54 PM 39.4889 -112.0928 78° East 519 597 41,000  Level Salt Lake Center
Sun 04:08:55 PM 39.5175 -111.9092 79° East 522 601 41,000  Level Salt Lake Center
Sun 04:09:57 PM 39.5458 -111.7269 79° East 521 600 41,000  Level Salt Lake Center
Sun 04:10:59 PM 39.5736 -111.5433 79° East 522 601 41,000  Level Salt Lake Center
Sun 04:12:01 PM 39.6017 -111.3594 79° East 523 602 41,000  Level Salt Lake Center
Sun 04:13:02 PM 39.6317 -111.1667 79° East 518 596 41,000  Level Salt Lake Center
Sun 04:14:04 PM 39.6617 -110.9614 79° East 518 596 41,000  Level Salt Lake Center
Sun 04:15:06 PM 39.6886 -110.7831 79° East 524 603 41,000  Level Salt Lake Center
Sun 04:16:07 PM 39.7181 -110.5764 79° East 522 601 41,000  Level Salt Lake Center
Sun 04:17:09 PM 39.7431 -110.3983 80° East 523 602 41,000  Level Salt Lake Center
Sun 04:18:11 PM 39.7686 -110.2194 79° East 525 604 41,000  Level Salt Lake Center
Sun 04:19:13 PM 39.7967 -110.0114 80° East 525 604 41,000  Level Salt Lake Center
Sun 04:20:14 PM 39.8219 -109.8325 80° East 525 604 41,000  Level Salt Lake Center
Sun 04:21:16 PM 39.8506 -109.6228 80° East 526 605 41,000  Level Salt Lake Center
Sun 04:22:18 PM 39.8750 -109.4422 80° East 528 608 41,000  Level Salt Lake Center
Sun 04:23:19 PM 39.9031 -109.2314 80° East 528 608 41,000  Level Salt Lake Center
Sun 04:24:24 PM 39.9261 -109.0478 81° East 527 606 41,000  Level Denver Center
Sun 04:25:26 PM 39.9544 -108.8353 80° East 529 609 41,000  Level Denver Center
Sun 04:26:28 PM 39.9781 -108.6525 80° East 529 609 41,000  Level Denver Center
Sun 04:27:30 PM 39.9997 -108.4694 81° East 529 609 41,000  Level Denver Center
Sun 04:28:32 PM 40.0258 -108.2578 81° East 527 606 41,000  Level Denver Center
Sun 04:29:34 PM 40.0483 -108.0769 81° East 527 606 41,000  Level Denver Center
Sun 04:30:35 PM 40.0800 -107.8667 79° East 528 608 41,000  Level Denver Center
Sun 04:31:37 PM 40.1200 -107.6922 73° East 526 605 41,000  Level Denver Center
Sun 04:32:39 PM 40.1667 -107.4878 73° East 526 605 41,000  Level Denver Center
Sun 04:33:41 PM 40.2081 -107.3108 73° East 531 611 41,000  Level Denver Center
Sun 04:34:43 PM 40.2475 -107.1353 74° East 528 608 41,000  Level Denver Center
Sun 04:35:45 PM 40.2931 -106.9283 74° East 529 609 41,000  Level Denver Center
Sun 04:36:47 PM 40.3356 -106.7439 73° East 530 610 41,000  Level Denver Center
Sun 04:37:49 PM 40.3769 -106.5561 74° East 531 611 41,000  Level Denver Center
Sun 04:38:51 PM 40.4183 -106.3656 74° East 530 610 41,000  Level Denver Center
Sun 04:39:53 PM 40.4636 -106.1578 74° East 530 610 41,000  Level Denver Center
Sun 04:40:55 PM 40.4981 -105.9914 75° East 529 609 41,000  Level Denver Center
Sun 04:41:57 PM 40.5467 -105.7678 74° East 530 610 41,000  Level Denver Center
Sun 04:42:58 PM 40.5853 -105.5831 75° East 526 605 41,000  Level Denver Center
Sun 04:44:00 PM 40.6239 -105.3964 75° East 527 606 41,000  Level Denver Center
Sun 04:45:02 PM 40.6622 -105.2114 75° East 524 603 41,000  Level Denver Center
Sun 04:46:04 PM 40.7003 -105.0247 75° East 527 606 41,000  Level Denver Center
Sun 04:47:06 PM 40.7389 -104.8378 75° East 528 608 41,000  Level Denver Center
Sun 04:48:08 PM 40.7764 -104.6525 75° East 525 604 41,000  Level Denver Center
Sun 04:49:10 PM 40.8131 -104.4658 75° East 525 604 41,000  Level Denver Center
Sun 04:50:12 PM 40.8586 -104.2367 75° East 537 618 41,000  Level Denver Center
Sun 04:51:14 PM 40.8947 -104.0456 76° East 537 618 41,000  Level Denver Center
Sun 04:52:16 PM 40.9328 -103.8542 75° East 538 619 41,000  Level Denver Center
Sun 04:53:18 PM 40.9694 -103.6628 76° East 537 618 41,000  Level Denver Center
Sun 04:54:20 PM 41.0047 -103.4725 76° East 539 620 41,000  Level Denver Center
Sun 04:55:22 PM 41.0456 -103.2567 76° East 541 623 41,000  Level Denver Center
Sun 04:56:24 PM 41.0797 -103.0731 76° East 539 620 41,000  Level Denver Center
Sun 04:57:26 PM 41.1083 -102.8417 81° East 541 623 41,000  Level Denver Center
Sun 04:58:28 PM 41.1231 -102.6506 84° East 543 625 41,000  Level Denver Center
Sun 04:59:29 PM 41.1372 -102.4578 84° East 549 632 41,000  Level Denver Center
Sun 05:00:31 PM 41.1531 -102.2356 85° East 543 625 41,000  Level Denver Center
Sun 05:01:33 PM 41.1697 -102.0419 83° East 549 632 41,000  Level Denver Center
Sun 05:02:35 PM 41.1853 -101.8178 85° East 546 628 41,000  Level Denver Center
Sun 05:03:37 PM 41.1992 -101.6244 84° East 549 632 41,000  Level Denver Center
Sun 05:04:39 PM 41.2133 -101.3989 85° East 548 631 41,000  Level Denver Center
Sun 05:05:41 PM 41.2269 -101.2042 85° East 550 633 41,000  Level Denver Center
Sun 05:06:43 PM 41.2389 -101.0100 85° East 549 632 41,000  Level Denver Center
Sun 05:07:45 PM 41.2539 -100.7817 85° East 550 633 41,000  Level Denver Center
Sun 05:08:46 PM 41.2658 -100.5861 85° East 550 633 41,000  Level Denver Center
Sun 05:09:48 PM 41.2794 -100.3586 85° East 549 632 41,000  Level Denver Center
Sun 05:10:50 PM 41.2897 -100.1619 86° East 552 635 41,000  Level Denver Center
Sun 05:11:52 PM 41.3008 -99.9661 86° East 554 638 41,000  Level Denver Center
Sun 05:12:54 PM 41.3136 -99.7397 86° East 551 634 41,000  Level Denver Center
Sun 05:13:56 PM 41.3231 -99.5428 86° East 554 638 41,000  Level Denver Center
Sun 05:14:58 PM 41.3328 -99.3319 86° East 555 639 41,000  Level Denver Center
Sun 05:16:00 PM 41.3433 -99.1253 86° East 556 640 41,000  Level Denver Center
Sun 05:17:02 PM 41.3531 -98.9167 86° East 556 640 41,000  Level Denver Center
Sun 05:18:04 PM 41.3617 -98.7053 87° East 558 642 41,000  Level Denver Center
Sun 05:19:06 PM 41.3703 -98.4956 87° East 559 643 41,000  Level Denver Center
Sun 05:20:34 PM 41.4061 -98.1664 82° East 560 644 41,000  Level Minneapolis Center
Sun 05:21:35 PM 41.4422 -97.9578 77° East 559 643 41,000  Level Minneapolis Center
Sun 05:22:37 PM 41.4758 -97.7550 77° East 560 644 41,000  Level Minneapolis Center
Sun 05:23:39 PM 41.5089 -97.5519 78° East 561 646 41,000  Level Minneapolis Center
Sun 05:24:40 PM 41.5414 -97.3481 78° East 562 647 41,000  Level Minneapolis Center
Sun 05:25:42 PM 41.5736 -97.1436 78° East 562 647 41,000  Level Minneapolis Center
Sun 05:26:44 PM 41.6064 -96.9375 78° East 566 651 41,000  Level Minneapolis Center
Sun 05:27:45 PM 41.6389 -96.7319 78° East 564 649 41,000  Level Minneapolis Center
Sun 05:28:47 PM 41.6706 -96.5233 78° East 569 655 41,000  Level Minneapolis Center
Sun 05:29:49 PM 41.7086 -96.2728 78° East 566 651 41,000  Level Minneapolis Center
Sun 05:30:50 PM 41.7397 -96.0628 79° East 569 655 41,000  Level Minneapolis Center
Sun 05:31:52 PM 41.7700 -95.8525 79° East 569 655 41,000  Level Minneapolis Center
Sun 05:32:54 PM 41.8011 -95.6425 79° East 570 656 41,000  Level Minneapolis Center
Sun 05:33:55 PM 41.8311 -95.4303 79° East 575 662 41,000  Level Minneapolis Center
Sun 05:34:57 PM 41.8589 -95.2194 80° East 573 659 41,000  Level Minneapolis Center
Sun 05:35:59 PM 41.8897 -95.0097 79° East 572 658 41,000  Level Minneapolis Center
Sun 05:37:00 PM 41.9186 -94.7989 79° East 574 661 41,000  Level Minneapolis Center
Sun 05:38:02 PM 41.9467 -94.5875 80° East 574 661 41,000  Level Minneapolis Center
Sun 05:39:04 PM 41.9753 -94.3783 80° East 572 658 41,000  Level Minneapolis Center
Sun 05:40:06 PM 42.0094 -94.1258 80° East 572 658 41,000  Level Minneapolis Center
Sun 05:41:07 PM 42.0364 -93.9125 80° East 576 663 41,000  Level Minneapolis Center
Sun 05:42:09 PM 42.0603 -93.7225 80° East 577 664 41,000  Level Minneapolis Center
Sun 05:43:11 PM 42.0872 -93.5122 80° East 577 664 41,000  Level Minneapolis Center
Sun 05:44:12 PM 42.1078 -93.2553 84° East 580 667 41,000  Level Minneapolis Center
Sun 05:45:14 PM 42.1164 -93.0386 87° East 583 671 41,000  Level Minneapolis Center
Sun 05:46:16 PM 42.1250 -92.8222 87° East 585 673 41,000  Level Minneapolis Center
Sun 05:46:49 PM 42.1300 -92.6914 87° East 584 672 41,000  Level Chicago Center
Sun 05:47:51 PM 42.1378 -92.4744 87° East 585 673 41,000  Level Chicago Center
Sun 05:48:53 PM 42.1469 -92.2581 87° East 586 674 41,000  Level Chicago Center
Sun 05:49:55 PM 42.1539 -92.0397 87° East 591 680 41,000  Level Chicago Center
Sun 05:50:57 PM 42.1631 -91.7794 87° East 588 677 41,000  Level Chicago Center
Sun 05:51:59 PM 42.1694 -91.5625 88° East 590 679 41,000  Level Chicago Center
Sun 05:53:01 PM 42.1764 -91.3439 87° East 592 681 41,000  Level Chicago Center
Sun 05:54:04 PM 42.1817 -91.1278 88° East 590 679 41,000  Level Chicago Center
Sun 05:55:06 PM 42.1878 -90.8669 88° East 587 676 41,000  Level Chicago Center
Sun 05:56:08 PM 42.1928 -90.6492 88° East 589 678 41,000  Level Chicago Center
Sun 05:57:10 PM 42.1978 -90.4292 88° East 594 684 41,000  Level Chicago Center
Sun 05:58:12 PM 42.2017 -90.2089 89° East 594 684 41,000  Level Chicago Center
Sun 05:59:14 PM 42.2061 -89.9439 89° East 597 687 41,000  Level Chicago Center
Sun 06:00:16 PM 42.2086 -89.7503 89° East 595 685 41,000  Level Chicago Center
Sun 06:01:18 PM 42.2117 -89.4847 89° East 594 684 41,000  Level Chicago Center
Sun 06:02:20 PM 42.2156 -89.2639 89° East 593 682 41,000  Level Chicago Center
Sun 06:03:22 PM 42.2175 -89.0389 89° East 600 690 41,000  Level Chicago Center
Sun 06:04:24 PM 42.2194 -88.7906 89° East 600 690 41,000  Level Chicago Center
Sun 06:05:27 PM 42.2211 -88.5664 89° East 600 690 41,000  Level Chicago Center
Sun 06:06:29 PM 42.2264 -88.3403 88° East 601 692 41,000  Level Chicago Center
Sun 06:07:31 PM 42.2342 -88.1139 87° East 602 693 41,000  Level Chicago Center
Sun 06:08:33 PM 42.2428 -87.8872 87° East 603 694 41,000  Level Chicago Center
Sun 06:09:35 PM 42.2489 -87.6594 88° East 607 699 41,000  Level Chicago Center
Sun 06:10:37 PM 42.2569 -87.3886 88° East 603 694 41,000  Level Chicago Center
Sun 06:11:39 PM 42.2633 -87.1594 88° East 610 702 41,000  Level Chicago Center
Sun 06:12:41 PM 42.2681 -86.9314 88° East 609 701 41,000  Level Chicago Center
Sun 06:13:43 PM 42.2731 -86.7028 88° East 612 704 41,000  Level Chicago Center
Sun 06:14:45 PM 42.2803 -86.4461 88° East 612 704 41,000  Level Chicago Center
Sun 06:15:47 PM 42.2842 -86.2158 89° East 611 703 41,000  Level Chicago Center
Sun 06:16:50 PM 42.2872 -86.0047 89° East 612 704 41,000  Level Chicago Center
Sun 06:17:52 PM 42.2906 -85.7297 89° East 615 708 41,000  Level Chicago Center
Sun 06:18:54 PM 42.2942 -85.5006 89° East 617 710 41,000  Level Chicago Center
Sun 06:19:56 PM 42.2961 -85.2694 89° East 619 712 41,000  Level Chicago Center
Sun 06:20:58 PM 42.2992 -85.0386 89° East 620 713 41,000  Level Chicago Center
Sun 06:22:00 PM 42.3006 -84.8081 89° East 618 711 41,000  Level Chicago Center
Sun 06:23:02 PM 42.3022 -84.5267 89° East 618 711 41,000  Level Chicago Center
Sun 06:24:04 PM 42.3022 -84.3003 90° East 619 712 41,000  Level Chicago Center
Sun 06:25:06 PM 42.3028 -84.0686 90° East 620 713 41,000  Level Chicago Center
Sun 06:26:08 PM 42.3022 -83.8317 90° East 620 713 41,000  Level Chicago Center
Sun 06:27:33 PM 42.2983 -83.5053 91° East 615 708 41,000  Level Cleveland Center
Sun 06:28:35 PM 42.2972 -83.2708 90° East 618 711 41,000  Level Cleveland Center
Sun 06:29:37 PM 42.2931 -83.0117 91° East 610 702 41,000  Level Cleveland Center
Sun 06:30:39 PM 42.2906 -82.7831 91° East 610 702 41,000  Level Cleveland Center
Sun 06:31:41 PM 42.2883 -82.5533 91° East 612 704 41,000  Level Cleveland Center
Sun 06:32:43 PM 42.2831 -82.3272 92° East 607 699 41,000  Level Cleveland Center
Sun 06:33:45 PM 42.2797 -82.0797 91° East 603 694 41,000  Level Cleveland Center
Sun 06:34:48 PM 42.2756 -81.8506 91° East 603 694 41,000  Level Cleveland Center
Sun 06:35:50 PM 42.2706 -81.6219 92° East 601 692 41,000  Level Cleveland Center
Sun 06:36:52 PM 42.2650 -81.3925 92° East 602 693 41,000  Level Cleveland Center
Sun 06:37:54 PM 42.2586 -81.1628 92° East 605 696 41,000  Level Cleveland Center
Sun 06:38:56 PM 42.2528 -80.9353 92° East 601 692 41,000  Level Cleveland Center
Sun 06:39:58 PM 42.2456 -80.6700 92° East 600 690 41,000  Level Cleveland Center
Sun 06:41:00 PM 42.2358 -80.4408 93° East 605 696 41,000  Level Cleveland Center
Sun 06:42:02 PM 42.2097 -80.2117 99° East 613 705 41,000  Level Cleveland Center
Sun 06:43:04 PM 42.1764 -79.9703 100° East 613 705 41,000  Level Cleveland Center
Sun 06:44:06 PM 42.1431 -79.7386 101° East 610 702 41,000  Level Cleveland Center
Sun 06:45:08 PM 42.1133 -79.5136 100° East 615 708 41,000  Level Cleveland Center
Sun 06:46:10 PM 42.0806 -79.2892 101° East 612 704 41,000  Level Cleveland Center
Sun 06:47:12 PM 42.0486 -79.0667 101° East 609 701 41,000 -144 Level Cleveland Center
Sun 06:48:15 PM 42.0244 -78.8425 98° East 604 695 40,700 -1,008 Descending Cleveland Center
Sun 06:49:17 PM 42.0219 -78.6175 91° East 601 692 38,900 -1,984 Descending Cleveland Center
Sun 06:50:19 PM 42.0081 -78.3533 94° East 594 684 36,600 -1,887 Descending Cleveland Center
Sun 06:51:21 PM 41.9567 -78.1397 108° East 606 697 35,000 -774 Descending Cleveland Center
Sun 06:52:23 PM 41.8858 -77.9172 113° Southeast 632 727 35,000  Level Cleveland Center
Sun 06:52:59 PM 41.8419 -77.7731 112° Southeast 626 720 35,000  Level New York Center
Sun 06:53:59 PM 41.7894 -77.5672 109° East 643 740 35,000  Level New York Center
Sun 06:54:57 PM 41.7292 -77.3414 110° East 643 740 35,000 -610 Level New York Center
Sun 06:55:57 PM 41.6631 -77.0989 110° East 643 740 33,800 -5,455 Descending New York Center
Sun 06:56:58 PM 41.5997 -76.8767 111° Southeast 643 740 24,000 -4,860 Descending New York Center
Sun 06:57:58 PM 41.5403 -76.6522 109° East 641 738 24,000 1,328 Level New York Center
Sun 06:59:00 PM 41.4839 -76.4394 109° East 629 724 26,700 353 Climbing New York Center
Sun 06:59:57 PM 41.4281 -76.2550 112° Southeast 614 707 24,700 -2,237 Descending New York Center
Sun 07:00:58 PM 41.3728 -76.0486 110° East 602 693 22,300 -2,350 Descending New York Center
Sun 07:01:57 PM 41.3208 -75.8594 110° East 578 665 20,000 -4,650 Descending New York Center
Sun 07:02:58 PM 41.2567 -75.6503 112° Southeast 553 636 13,000 -2,410 Descending New York Center
Sun 07:03:59 PM 41.2106 -75.5036 113° Southeast 505 581 15,100  Climbing New York Center
Sun 07:04:58 PM 41.1583 -75.3483 114° Southeast 472 543 13,000 -1,686 Descending New York Center
Sun 07:06:00 PM 41.1133 -75.2158 114° Southeast 421 484 11,700 -1,850 Descending New York Center
Sun 07:06:58 PM 41.0817 -75.1175 113° Southeast 350 403 9,300 -2,420 Descending New York Center
Sun 07:07:59 PM 41.0439 -75.0106 115° Southeast 319 367 6,900 -1,636 Descending New York Center
Sun 07:08:59 PM 41.0128 -74.8903 109° East 308 354 6,000 -504 Descending New York Center
Sun 07:09:58 PM 41.0139 -74.7914 89° East 302 348 5,900 -454 Descending New York Center
Sun 07:10:58 PM 41.0158 -74.6706 89° East 297 342 5,100 -793 Descending New York Center
Sun 07:11:59 PM 41.0192 -74.5717 87° East 291 335 4,300 -950 Descending New York Center
Sun 07:12:58 PM 41.0206 -74.4592 89° East 285 328 3,200 -605 Descending New York Center
Sun 07:13:58 PM 41.0217 -74.3575 89° East 285 328 3,100 -50 Descending New York Center
Sun 07:14:58 PM 41.0247 -74.2586 88° East 273 314 3,100 -496 Level New York Center
Sun 07:15:59 PM 41.0253 -74.1678 90° East 251 289 2,100 -545 Descending New York Center
Sun 07:16:59 PM 41.0256 -74.0825 90° East 245 282 2,000 -50 Descending New York Center
Sun 07:17:58 PM 40.9722 -74.0553 159° South 184 212 2,000 -202 Level New York Center
Sun 07:18:58 PM 40.9283 -74.0558 181° South 178 205 1,600 -446 Descending New York Center
Sun 07:19:59 PM 40.8914 -74.0403 162° South 149 171 1,100 -639 Descending New York Center
Sun 07:21:00 PM 40.8619 -74.0472 190° South 126 145 300 -787 Descending New York Center
Sun 07:22:00 PM 40.8500 -74.0500 143° Southeast  Level FlightAware Approximate
Sun 07:29:00 PM 40.8501 -74.0608 143° Southeast  Level Estimated
Sun 07:30:00 PM 40.8501 -74.0608 143° Southeast  Level Estimated

Login

Don't have an account? Register now (free) for customized features, flight alerts, and more!